Time;durP1;ratioP1;P1;durP2;ratioP2;P2;SDS_P1;SDS_P2;PMS_P1;PMS_P2;Temp;Humidity;BMP_temperature;BMP_pressure;BME280_temperature;BME280_humidity;BME280_pressure;Samples;Min_cycle;Max_cycle;Signal;HPM_P1;HPM_P2
2023/11/25 00:03:31;;;;;;;11.40;4.80;;;;;;;1.01;85.78;96721.38;226542;1272;22536;-75
2023/11/25 00:08:35;;;;;;;9.30;6.00;;;;;;;1.05;85.80;96716.02;226500;1275;25119;-75
2023/11/25 00:13:37;;;;;;;8.70;4.40;;;;;;;1.11;85.80;96715.90;226460;1272;24413;-75
2023/11/25 00:18:39;;;;;;;9.50;5.30;;;;;;;1.16;85.65;96711.24;226372;1272;22559;-75
2023/11/25 00:23:41;;;;;;;9.40;5.30;;;;;;;1.19;85.68;96717.20;226360;1273;22543;-74
2023/11/25 00:28:46;;;;;;;7.00;3.80;;;;;;;1.23;85.76;96718.42;226460;1275;23016;-75
2023/11/25 00:33:48;;;;;;;10.90;5.80;;;;;;;1.27;85.65;96708.99;226479;1272;22621;-75
2023/11/25 00:38:52;;;;;;;8.50;5.80;;;;;;;1.29;85.72;96705.16;226528;1273;22947;-75
2023/11/25 00:43:54;;;;;;;9.50;5.60;;;;;;;1.31;85.81;96708.57;226444;1271;22611;-75
2023/11/25 00:48:56;;;;;;;7.70;5.00;;;;;;;1.34;85.71;96702.04;226333;1273;22536;-75
2023/11/25 00:53:59;;;;;;;7.10;4.30;;;;;;;1.37;85.75;96700.02;226336;1275;22563;-75
2023/11/25 00:59:02;;;;;;;7.80;4.70;;;;;;;1.39;85.58;96700.38;226447;1275;22571;-75
2023/11/25 01:04:04;;;;;;;9.00;5.10;;;;;;;1.42;85.61;96701.98;226584;1272;22530;-75
2023/11/25 01:09:07;;;;;;;8.20;4.90;;;;;;;1.47;85.72;96694.35;226292;1272;22548;-75
2023/11/25 01:14:10;;;;;;;8.70;4.10;;;;;;;1.51;85.76;96696.79;226498;1272;22537;-76
2023/11/25 01:19:12;;;;;;;9.20;5.60;;;;;;;1.53;85.62;96700.41;226495;1264;22644;-76
2023/11/25 01:24:15;;;;;;;6.70;4.50;;;;;;;1.55;85.49;96706.37;226459;1272;22565;-76
2023/11/25 01:29:17;;;;;;;8.50;4.60;;;;;;;1.50;85.47;96708.98;226441;1272;22544;-74
2023/11/25 01:34:19;;;;;;;10.70;5.00;;;;;;;1.43;85.44;96706.04;226437;1272;22542;-74
2023/11/25 01:39:24;;;;;;;9.50;5.30;;;;;;;1.36;85.63;96706.17;226485;1272;25236;-74
2023/11/25 01:44:27;;;;;;;7.20;4.60;;;;;;;1.25;85.53;96701.99;226406;1273;22542;-75
2023/11/25 01:49:29;;;;;;;5.00;3.70;;;;;;;1.16;85.86;96704.38;226392;1272;22953;-74
2023/11/25 01:54:32;;;;;;;6.60;3.90;;;;;;;1.08;85.96;96707.45;226599;1272;22553;-75
2023/11/25 01:59:34;;;;;;;5.20;3.70;;;;;;;1.03;86.41;96708.45;226471;1272;22650;-75
2023/11/25 02:04:37;;;;;;;4.40;3.20;;;;;;;1.01;86.46;96708.77;226388;1273;22494;-75
2023/11/25 02:09:39;;;;;;;7.80;5.00;;;;;;;0.97;86.61;96710.60;226452;1275;22580;-75
2023/11/25 02:14:41;;;;;;;6.30;4.40;;;;;;;1.00;86.80;96709.36;226398;1273;22535;-75
2023/11/25 02:19:43;;;;;;;7.00;4.70;;;;;;;1.04;86.80;96708.95;226447;1269;22565;-75
2023/11/25 02:24:47;;;;;;;6.20;4.30;;;;;;;1.07;87.05;96714.34;226276;1273;23044;-75
2023/11/25 02:29:50;;;;;;;6.80;4.40;;;;;;;1.09;87.14;96707.19;226396;1272;22560;-75
2023/11/25 02:34:53;;;;;;;7.20;4.30;;;;;;;1.07;87.17;96713.36;226342;1275;22536;-75
2023/11/25 02:39:55;;;;;;;5.90;4.40;;;;;;;1.05;87.05;96721.80;226340;1273;22544;-75
2023/11/25 02:44:57;;;;;;;5.10;4.30;;;;;;;1.05;87.15;96726.13;226398;1272;22588;-75
2023/11/25 02:49:59;;;;;;;4.70;4.20;;;;;;;1.04;87.26;96726.92;226355;1272;22542;-74
2023/11/25 02:55:01;;;;;;;7.60;5.60;;;;;;;1.07;87.45;96734.76;226411;1275;22572;-75
2023/11/25 03:00:10;;;;;;;9.10;7.00;;;;;;;1.08;87.42;96741.94;226380;1272;22548;-74
2023/11/25 03:05:13;;;;;;;9.90;7.40;;;;;;;1.10;87.42;96741.75;226277;1272;22623;-73
2023/11/25 03:10:16;;;;;;;8.60;7.70;;;;;;;1.09;87.37;96750.66;226409;1271;23207;-73
2023/11/25 03:15:19;;;;;;;13.60;9.90;;;;;;;1.08;87.50;96750.45;226420;1272;22527;-73
2023/11/25 03:20:21;;;;;;;12.80;10.90;;;;;;;1.07;87.63;96757.44;226349;1272;22540;-74
2023/11/25 03:25:24;;;;;;;13.70;10.10;;;;;;;1.05;87.58;96753.50;226410;1272;23656;-74
2023/11/25 03:30:26;;;;;;;14.10;9.70;;;;;;;1.07;87.63;96755.20;226447;1269;22541;-74
2023/11/25 03:35:28;;;;;;;14.50;10.50;;;;;;;1.08;87.63;96756.14;226381;1268;22582;-73
2023/11/25 03:40:31;;;;;;;17.30;13.30;;;;;;;1.10;87.62;96765.09;226405;1272;22542;-74
2023/11/25 03:45:33;;;;;;;26.20;18.20;;;;;;;1.11;87.61;96769.50;226387;1272;22726;-74
2023/11/25 03:50:36;;;;;;;25.00;17.30;;;;;;;1.11;87.72;96774.34;226335;1272;22548;-74
2023/11/25 03:55:39;;;;;;;25.90;17.00;;;;;;;1.10;87.73;96791.25;226354;1272;22581;-74
2023/11/25 04:00:41;;;;;;;22.10;15.20;;;;;;;1.12;87.85;96798.13;226381;1275;22551;-74
2023/11/25 04:05:43;;;;;;;20.40;15.30;;;;;;;1.11;87.72;96800.41;226395;1272;22558;-74
2023/11/25 04:10:45;;;;;;;12.40;9.40;;;;;;;1.04;87.70;96816.60;226428;1253;22532;-74
2023/11/25 04:15:47;;;;;;;2.10;1.80;;;;;;;0.93;87.96;96820.42;226333;1275;22564;-75
2023/11/25 04:20:50;;;;;;;3.00;1.70;;;;;;;0.85;88.08;96827.14;226438;1272;22925;-74
2023/11/25 04:25:53;;;;;;;1.80;1.60;;;;;;;0.80;88.15;96838.05;226260;1275;25323;-75
2023/11/25 04:30:56;;;;;;;2.10;1.60;;;;;;;0.75;88.55;96848.76;226400;1272;22563;-76
2023/11/25 04:35:59;;;;;;;3.50;2.70;;;;;;;0.66;88.58;96861.77;226356;1275;25321;-75
2023/11/25 04:41:01;;;;;;;3.60;2.80;;;;;;;0.63;88.79;96874.69;226392;1272;22652;-75
2023/11/25 04:46:04;;;;;;;4.20;2.80;;;;;;;0.58;88.51;96887.23;226348;1275;22547;-75
2023/11/25 04:51:07;;;;;;;4.60;2.80;;;;;;;0.52;88.41;96902.44;226370;1266;22562;-75
2023/11/25 04:56:10;;;;;;;3.40;2.80;;;;;;;0.49;88.16;96913.00;226359;1275;22559;-75
2023/11/25 05:01:15;;;;;;;4.30;2.80;;;;;;;0.46;88.15;96924.37;226267;1275;22734;-75
2023/11/25 05:06:18;;;;;;;3.20;2.80;;;;;;;0.44;88.07;96918.42;226376;1272;25971;-75
2023/11/25 05:11:20;;;;;;;6.70;3.90;;;;;;;0.40;87.96;96923.55;226419;1272;22612;-75
2023/11/25 05:16:22;;;;;;;6.00;4.20;;;;;;;0.36;87.85;96936.56;226297;1275;22530;-75
2023/11/25 05:21:24;;;;;;;6.30;4.20;;;;;;;0.32;87.74;96950.67;226331;1272;22551;-75
2023/11/25 05:26:26;;;;;;;5.70;4.10;;;;;;;0.27;87.48;96963.01;226338;1272;22545;-75
2023/11/25 05:31:29;;;;;;;6.60;4.50;;;;;;;0.27;87.66;96978.08;226378;1273;23813;-74
2023/11/25 05:36:34;;;;;;;6.70;4.60;;;;;;;0.27;87.43;96989.47;226339;1275;22528;-75
2023/11/25 05:41:37;;;;;;;4.90;4.10;;;;;;;0.28;87.21;96997.91;226292;1275;22540;-75
2023/11/25 05:46:40;;;;;;;6.00;4.50;;;;;;;0.28;87.19;97009.70;226349;1272;24372;-75
2023/11/25 05:51:42;;;;;;;5.40;4.60;;;;;;;0.25;86.82;97011.73;226380;1275;24257;-75
2023/11/25 05:56:45;;;;;;;5.60;4.70;;;;;;;0.19;86.85;97018.40;226389;1275;22551;-75
2023/11/25 06:01:47;;;;;;;5.30;4.20;;;;;;;0.13;86.73;97017.00;226313;1272;22553;-75
2023/11/25 06:06:50;;;;;;;6.50;4.60;;;;;;;0.09;86.64;97021.23;226408;1272;22715;-75
2023/11/25 06:11:52;;;;;;;6.80;5.10;;;;;;;0.09;86.90;97033.27;226377;1272;24940;-74
2023/11/25 06:16:56;;;;;;;4.10;3.60;;;;;;;0.10;86.90;97045.59;226312;1272;22599;-74
2023/11/25 06:22:00;;;;;;;6.70;3.90;;;;;;;0.09;86.90;97053.58;226369;1272;22545;-74
2023/11/25 06:27:03;;;;;;;5.70;3.30;;;;;;;0.05;86.32;97059.02;226334;1272;22608;-74
2023/11/25 06:32:06;;;;;;;5.00;3.60;;;;;;;0.03;86.36;97067.79;226375;1269;25416;-74
2023/11/25 06:37:08;;;;;;;6.40;4.20;;;;;;;0.02;86.25;97077.91;226609;1272;22643;-74
2023/11/25 06:42:12;;;;;;;5.50;4.40;;;;;;;0.04;86.30;97088.95;226376;1272;22621;-75
2023/11/25 06:47:14;;;;;;;5.10;3.80;;;;;;;0.06;86.21;97106.70;226372;1275;22588;-75
2023/11/25 06:52:17;;;;;;;5.00;3.60;;;;;;;0.07;86.22;97115.44;226296;1275;22565;-77
2023/11/25 06:57:19;;;;;;;4.20;3.30;;;;;;;0.09;86.24;97124.39;226306;1273;22554;-74
2023/11/25 07:02:21;;;;;;;5.90;3.90;;;;;;;0.11;86.18;97134.45;226357;1269;25520;-75
2023/11/25 07:07:24;;;;;;;5.60;3.60;;;;;;;0.12;85.94;97144.16;226334;1272;24223;-76
2023/11/25 07:12:27;;;;;;;4.50;3.30;;;;;;;0.16;85.99;97160.56;226324;1275;22550;-75
2023/11/25 07:17:29;;;;;;;3.60;3.10;;;;;;;0.19;85.60;97167.11;226350;1272;22537;-76
2023/11/25 07:22:32;;;;;;;9.60;4.20;;;;;;;0.22;85.66;97173.69;226342;1272;22858;-75
2023/11/25 07:27:34;;;;;;;8.90;4.70;;;;;;;0.25;85.57;97175.44;226229;1275;22540;-74
2023/11/25 07:32:40;;;;;;;7.90;4.40;;;;;;;0.28;85.71;97182.59;226153;1254;22709;-74
2023/11/25 07:37:42;;;;;;;9.40;5.10;;;;;;;0.28;85.66;97190.17;226243;1275;24244;-75
2023/11/25 07:42:51;;;;;;;7.80;5.10;;;;;;;0.30;85.67;97191.36;226364;1272;22543;-75
2023/11/25 07:47:53;;;;;;;7.50;4.90;;;;;;;0.33;85.56;97192.45;226291;1275;22595;-75
2023/11/25 07:52:55;;;;;;;9.00;5.70;;;;;;;0.39;85.61;97191.89;226379;1275;22739;-76
2023/11/25 07:57:58;;;;;;;7.60;4.90;;;;;;;0.46;85.53;97205.41;226236;1275;23018;-76
2023/11/25 08:03:02;;;;;;;8.90;5.60;;;;;;;0.53;85.44;97217.05;226365;1271;22550;-76
2023/11/25 08:08:04;;;;;;;13.00;6.40;;;;;;;0.60;85.63;97218.82;225984;1267;22545;-75
2023/11/25 08:13:06;;;;;;;7.30;4.70;;;;;;;0.81;85.39;97225.23;226178;1259;22540;-76
2023/11/25 08:18:09;;;;;;;6.00;4.60;;;;;;;1.04;85.24;97233.18;225877;1273;22550;-75
2023/11/25 08:23:15;;;;;;;7.30;3.90;;;;;;;1.13;84.65;97239.23;225914;1256;22564;-77
2023/11/25 08:28:17;;;;;;;6.40;4.70;;;;;;;1.21;84.52;97250.48;225858;1272;24920;-76
2023/11/25 08:33:19;;;;;;;6.70;4.60;;;;;;;1.29;84.44;97256.59;225751;1260;26653;-76
2023/11/25 08:38:21;;;;;;;6.80;3.80;;;;;;;1.35;84.26;97262.80;225898;1255;22584;-75
2023/11/25 08:43:24;;;;;;;9.50;4.70;;;;;;;1.38;84.20;97268.19;225788;1258;22579;-76
2023/11/25 08:48:26;;;;;;;7.60;5.50;;;;;;;1.41;84.17;97268.64;225679;1267;23061;-76
2023/11/25 08:53:29;;;;;;;5.90;4.20;;;;;;;1.46;83.91;97276.08;225710;1267;22590;-76
2023/11/25 08:58:31;;;;;;;5.80;3.60;;;;;;;1.51;83.66;97271.79;225815;1272;22600;-76
2023/11/25 09:03:33;;;;;;;9.10;5.90;;;;;;;1.56;83.33;97265.02;225602;1272;22920;-76
2023/11/25 09:08:36;;;;;;;7.90;4.20;;;;;;;1.73;83.61;97271.48;225689;1267;22540;-76
2023/11/25 09:13:38;;;;;;;6.20;3.70;;;;;;;1.86;83.23;97277.11;225837;1262;22577;-76
2023/11/25 09:18:40;;;;;;;5.00;3.70;;;;;;;1.91;83.08;97278.50;226046;1273;22549;-75
2023/11/25 09:23:43;;;;;;;5.80;3.70;;;;;;;1.83;82.96;97286.77;226005;1267;25347;-77
2023/11/25 09:28:45;;;;;;;8.70;4.30;;;;;;;1.68;82.94;97297.89;225882;1267;25330;-76
2023/11/25 09:33:49;;;;;;;5.10;4.00;;;;;;;1.62;83.29;97300.25;225972;1272;22598;-77
2023/11/25 09:38:52;;;;;;;6.30;4.00;;;;;;;1.63;83.33;97298.76;225632;1272;22553;-77
2023/11/25 09:43:54;;;;;;;3.40;2.80;;;;;;;1.70;83.00;97301.34;225796;1254;22578;-76
2023/11/25 09:48:56;;;;;;;4.20;2.90;;;;;;;1.74;82.84;97295.47;225674;1272;22543;-76
2023/11/25 09:54:07;;;;;;;2.40;1.90;;;;;;;1.69;82.41;97289.79;225628;1274;23059;-76
2023/11/25 09:59:11;;;;;;;5.30;2.30;;;;;;;1.59;82.00;97293.38;226681;1272;22533;-76
2023/11/25 10:04:15;;;;;;;4.90;2.50;;;;;;;1.47;81.77;97288.27;226688;1267;22907;-76
2023/11/25 10:09:19;;;;;;;5.50;2.50;;;;;;;1.35;81.85;97295.59;225788;1251;22597;-76
2023/11/25 10:14:27;;;;;;;6.00;3.00;;;;;;;1.35;82.05;97295.30;225887;1268;23071;-76
2023/11/25 10:19:29;;;;;;;3.60;2.80;;;;;;;1.46;81.97;97297.38;225712;1253;22587;-76
2023/11/25 10:24:33;;;;;;;3.40;2.10;;;;;;;1.57;81.91;97300.98;225969;1255;22542;-76
2023/11/25 10:29:39;;;;;;;2.90;1.80;;;;;;;1.65;81.50;97309.83;225935;1256;22617;-76
2023/11/25 10:34:41;;;;;;;3.10;2.10;;;;;;;1.67;81.21;97309.14;225787;1254;23024;-75
2023/11/25 10:39:44;;;;;;;3.30;2.40;;;;;;;1.66;81.14;97306.13;225861;1257;22543;-76
2023/11/25 10:44:48;;;;;;;3.80;2.60;;;;;;;1.72;81.52;97303.34;227481;1272;22548;-78
2023/11/25 10:49:50;;;;;;;3.60;2.50;;;;;;;1.72;81.46;97311.25;225797;1264;24244;-77
2023/11/25 10:54:54;;;;;;;1.60;0.80;;;;;;;1.49;81.25;97325.15;225858;1251;22556;-78
2023/11/25 10:59:59;;;;;;;2.20;1.40;;;;;;;1.19;81.14;97326.19;225903;1270;22559;-78
2023/11/25 11:05:14;;;;;;;1.40;1.30;;;;;;;0.91;81.92;97324.48;225882;1251;24913;-74
2023/11/25 11:10:29;;;;;;;3.10;1.80;;;;;;;0.89;82.21;97329.20;225825;1262;25679;-76
2023/11/25 11:15:37;;;;;;;4.00;2.10;;;;;;;0.93;82.22;97329.94;225888;1269;24247;-76
2023/11/25 11:20:50;;;;;;;4.70;3.00;;;;;;;1.09;82.58;97324.99;225847;1257;181483;-76
2023/11/25 11:26:02;;;;;;;2.90;2.50;;;;;;;1.19;82.18;97330.34;225925;1253;22549;-77
2023/11/25 11:31:43;;;;;;;2.70;2.40;;;;;;;1.24;81.86;97324.65;226088;1267;23150;-77
2023/11/25 11:36:46;;;;;;;2.50;2.00;;;;;;;1.40;81.58;97325.24;225768;1267;22554;-78
2023/11/25 11:41:48;;;;;;;2.30;1.80;;;;;;;1.72;81.34;97326.29;226008;1273;22560;-77
2023/11/25 11:46:51;;;;;;;2.00;1.50;;;;;;;1.86;80.64;97323.52;225902;1260;22908;-80
2023/11/25 11:52:02;;;;;;;4.80;1.60;;;;;;;1.84;80.00;97318.65;225667;1261;25239;-78
2023/11/25 11:57:05;;;;;;;;;;;;;;;1.77;79.64;97316.31;226483;1267;22880;-77
2023/11/25 12:02:07;;;;;;;4.40;2.40;;;;;;;1.67;79.43;97320.05;225339;1267;22562;-78
2023/11/25 12:07:10;;;;;;;4.70;2.60;;;;;;;1.60;79.56;97322.71;225293;1274;25436;-79
2023/11/25 12:12:12;;;;;;;6.10;3.40;;;;;;;1.52;79.77;97320.16;225379;1274;22786;-76
2023/11/25 12:17:16;;;;;;;4.60;2.80;;;;;;;1.51;80.15;97312.98;225442;1276;22630;-76
2023/11/25 12:22:18;;;;;;;3.50;2.70;;;;;;;1.51;80.06;97309.69;225576;1276;24426;-75
2023/11/25 12:27:23;;;;;;;3.20;2.70;;;;;;;1.46;80.15;97312.10;225807;1276;22601;-75
2023/11/25 12:32:25;;;;;;;4.50;2.60;;;;;;;1.51;80.17;97318.55;226143;1273;22562;-74
2023/11/25 12:37:28;;;;;;;4.60;3.00;;;;;;;1.67;80.56;97316.80;226129;1275;25245;-75
2023/11/25 12:42:33;;;;;;;3.80;3.00;;;;;;;1.79;80.53;97317.63;226186;1274;23114;-76
2023/11/25 12:47:51;;;;;;;2.50;1.70;;;;;;;1.82;80.26;97325.48;226210;1276;22551;-76
2023/11/25 12:53:10;;;;;;;2.00;1.80;;;;;;;1.75;79.82;97317.76;226111;1274;22557;-75
2023/11/25 12:58:16;;;;;;;2.60;2.00;;;;;;;1.75;80.06;97324.52;226251;1276;22559;-75
2023/11/25 13:03:32;;;;;;;2.60;2.20;;;;;;;1.76;79.76;97330.95;226214;1273;25352;-75
2023/11/25 13:08:40;;;;;;;4.20;2.50;;;;;;;1.73;79.67;97336.23;226033;1273;22559;-76
2023/11/25 13:13:42;;;;;;;3.80;2.50;;;;;;;1.68;79.81;97336.09;226137;1275;22571;-75
2023/11/25 13:18:48;;;;;;;4.20;2.60;;;;;;;1.62;80.03;97336.86;226153;1274;22580;-75
2023/11/25 13:23:50;;;;;;;5.50;3.10;;;;;;;1.54;80.25;97341.56;226093;1276;22672;-75
2023/11/25 13:28:53;;;;;;;5.60;3.10;;;;;;;1.45;80.24;97342.83;225892;1276;24269;-75
2023/11/25 13:33:55;;;;;;;5.40;2.60;;;;;;;1.28;80.31;97344.61;226125;1275;22608;-75
2023/11/25 13:39:04;;;;;;;2.80;2.20;;;;;;;1.12;80.38;97348.23;226170;1275;23619;-75
2023/11/25 13:44:06;;;;;;;4.20;2.70;;;;;;;0.97;80.54;97357.70;226082;1270;22550;-76
2023/11/25 13:49:09;;;;;;;4.80;3.60;;;;;;;0.86;80.85;97363.14;226183;1274;22573;-75
2023/11/25 13:54:11;;;;;;;6.20;4.00;;;;;;;0.84;81.38;97367.85;226199;1270;22560;-75
2023/11/25 13:59:13;;;;;;;6.00;3.80;;;;;;;0.84;81.67;97374.02;226140;1273;25402;-76
2023/11/25 14:04:16;;;;;;;6.30;3.20;;;;;;;0.80;81.78;97369.71;226098;1270;22536;-75
2023/11/25 14:09:18;;;;;;;4.30;2.00;;;;;;;0.71;81.48;97373.42;226117;1270;23914;-74
2023/11/25 14:14:20;;;;;;;3.80;2.70;;;;;;;0.58;81.21;97375.96;226112;1270;22543;-75
2023/11/25 14:19:22;;;;;;;5.50;2.90;;;;;;;0.45;81.41;97379.32;226104;1272;22558;-75
2023/11/25 14:24:25;;;;;;;6.10;4.00;;;;;;;0.36;81.55;97380.04;226112;1273;22561;-75
2023/11/25 14:29:27;;;;;;;7.00;4.10;;;;;;;0.29;81.72;97383.86;226111;1270;22550;-76
2023/11/25 14:34:29;;;;;;;6.70;4.10;;;;;;;0.25;82.16;97391.38;226141;1276;22547;-75
2023/11/25 14:39:34;;;;;;;11.80;4.00;;;;;;;0.25;82.11;97395.02;226078;1275;22954;-75
2023/11/25 14:44:50;;;;;;;4.00;3.40;;;;;;;0.27;82.37;97393.73;226200;1276;22550;-75
2023/11/25 14:49:52;;;;;;;5.70;3.90;;;;;;;0.31;82.71;97394.66;226123;1274;22574;-75
2023/11/25 14:54:54;;;;;;;7.40;4.50;;;;;;;0.35;82.90;97398.34;226128;1272;22660;-75
2023/11/25 14:59:57;;;;;;;8.10;4.80;;;;;;;0.35;82.89;97399.84;226095;1273;23065;-75
2023/11/25 15:05:00;;;;;;;8.30;5.50;;;;;;;0.33;83.01;97407.46;226095;1274;22577;-75
2023/11/25 15:10:03;;;;;;;10.90;6.40;;;;;;;0.29;82.81;97409.86;226061;1273;22549;-74
2023/11/25 15:15:08;;;;;;;13.70;8.40;;;;;;;0.26;83.11;97411.02;226106;1273;22621;-75
2023/11/25 15:20:14;;;;;;;11.20;6.70;;;;;;;0.24;83.27;97407.21;226387;1273;22543;-76
2023/11/25 15:25:16;;;;;;;7.90;5.60;;;;;;;0.22;83.34;97406.62;226144;1270;22652;-75
2023/11/25 15:30:18;;;;;;;7.20;5.10;;;;;;;0.18;83.43;97409.71;226156;1276;24306;-77
2023/11/25 15:35:20;;;;;;;8.80;6.20;;;;;;;0.17;83.58;97415.10;226085;1276;23166;-74
2023/11/25 15:40:23;;;;;;;8.50;5.10;;;;;;;0.16;83.76;97416.55;226141;1273;22760;-74
2023/11/25 15:45:25;;;;;;;8.20;5.30;;;;;;;0.09;83.79;97424.20;226189;1273;22570;-75
2023/11/25 15:50:28;;;;;;;8.90;5.00;;;;;;;0.08;83.85;97423.73;226104;1275;22536;-74
2023/11/25 15:55:30;;;;;;;8.40;5.00;;;;;;;0.08;84.05;97429.99;226143;1272;22543;-74
2023/11/25 16:00:33;;;;;;;7.50;5.00;;;;;;;0.04;84.35;97425.11;226112;1273;23013;-75
2023/11/25 16:05:35;;;;;;;15.20;8.80;;;;;;;-0.03;84.43;97423.02;226093;1273;22547;-74
2023/11/25 16:10:38;;;;;;;12.60;8.70;;;;;;;-0.05;84.43;97422.52;226118;1271;22687;-76
2023/11/25 16:15:41;;;;;;;15.60;10.20;;;;;;;-0.07;84.58;97415.09;226144;1273;22645;-75
2023/11/25 16:20:43;;;;;;;18.60;11.20;;;;;;;-0.09;84.64;97410.90;226004;1275;22543;-75
2023/11/25 16:25:46;;;;;;;20.10;11.70;;;;;;;-0.08;85.08;97409.64;226206;1272;24580;-74
2023/11/25 16:30:48;;;;;;;22.00;11.80;;;;;;;-0.09;84.85;97410.83;226182;1270;26246;-75
2023/11/25 16:35:51;;;;;;;23.80;14.30;;;;;;;-0.13;84.82;97416.06;226190;1271;22611;-73
2023/11/25 16:40:53;;;;;;;27.70;16.80;;;;;;;-0.12;84.90;97416.81;226165;1272;22594;-75
2023/11/25 16:45:56;;;;;;;22.70;15.90;;;;;;;-0.08;85.27;97418.63;225937;1276;22578;-76
2023/11/25 16:50:59;;;;;;;27.90;16.60;;;;;;;-0.04;85.44;97418.76;225917;1276;22554;-75
2023/11/25 16:56:01;;;;;;;27.90;17.80;;;;;;;0.02;85.29;97425.48;226162;1273;22542;-74
2023/11/25 17:01:03;;;;;;;29.30;18.70;;;;;;;0.05;85.50;97420.44;226173;1273;22550;-75
2023/11/25 17:06:08;;;;;;;37.10;21.40;;;;;;;0.04;85.41;97421.44;226132;1276;22550;-75
2023/11/25 17:11:11;;;;;;;29.10;18.50;;;;;;;0.00;85.17;97422.98;226123;1273;22547;-75
2023/11/25 17:16:16;;;;;;;32.70;20.00;;;;;;;-0.04;85.07;97429.85;226100;1271;23052;-74
2023/11/25 17:21:18;;;;;;;28.70;16.80;;;;;;;-0.11;85.36;97436.45;226014;1275;22639;-75
2023/11/25 17:26:21;;;;;;;34.70;20.10;;;;;;;-0.14;85.76;97445.38;226152;1269;22631;-76
2023/11/25 17:31:24;;;;;;;26.30;15.70;;;;;;;-0.13;85.84;97453.23;225901;1276;25562;-75
2023/11/25 17:36:26;;;;;;;26.30;15.40;;;;;;;-0.13;85.77;97440.45;225963;1276;22555;-75
2023/11/25 17:41:29;;;;;;;24.30;15.70;;;;;;;-0.16;85.97;97442.99;226143;1273;22534;-76
2023/11/25 17:46:33;;;;;;;24.00;15.60;;;;;;;-0.17;86.04;97442.05;226110;1276;25880;-75
2023/11/25 17:51:35;;;;;;;24.30;14.80;;;;;;;-0.16;86.01;97440.77;226155;1273;24841;-75
2023/11/25 17:56:38;;;;;;;19.90;12.90;;;;;;;-0.17;86.00;97446.95;226163;1273;22615;-75
2023/11/25 18:01:41;;;;;;;22.00;14.50;;;;;;;-0.18;86.03;97453.59;226170;1276;22540;-75
2023/11/25 18:06:44;;;;;;;23.40;14.50;;;;;;;-0.19;86.11;97452.64;226181;1276;22648;-75
2023/11/25 18:11:47;;;;;;;23.30;15.70;;;;;;;-0.17;86.39;97452.11;226063;1271;22557;-75
2023/11/25 18:16:49;;;;;;;24.60;16.80;;;;;;;-0.10;86.56;97451.19;225964;1276;22540;-75
2023/11/25 18:21:52;;;;;;;23.10;14.80;;;;;;;-0.04;86.64;97450.45;226175;1268;22542;-75
2023/11/25 18:26:54;;;;;;;28.60;16.80;;;;;;;-0.04;86.68;97447.44;226064;1275;22660;-75
2023/11/25 18:31:56;;;;;;;28.30;18.10;;;;;;;-0.03;86.60;97450.83;226079;1276;25271;-76
2023/11/25 18:37:00;;;;;;;29.90;17.30;;;;;;;-0.02;86.72;97449.14;226153;1273;23049;-74
2023/11/25 18:42:03;;;;;;;29.40;19.00;;;;;;;0.02;86.74;97449.02;226101;1272;22578;-75
2023/11/25 18:47:06;;;;;;;26.40;18.10;;;;;;;0.10;87.05;97451.10;226132;1276;22550;-76
2023/11/25 18:52:08;;;;;;;27.30;17.50;;;;;;;0.18;86.91;97453.70;226183;1274;22903;-74
2023/11/25 18:57:13;;;;;;;26.80;17.10;;;;;;;0.21;86.86;97456.15;226108;1270;22910;-75
2023/11/25 19:02:15;;;;;;;23.60;14.60;;;;;;;0.20;86.70;97458.52;226162;1274;22541;-74
2023/11/25 19:07:18;;;;;;;28.30;17.80;;;;;;;0.19;86.79;97454.84;226137;1272;26120;-74
2023/11/25 19:12:20;;;;;;;31.40;19.70;;;;;;;0.18;86.59;97455.45;226149;1273;22611;-75
2023/11/25 19:17:22;;;;;;;29.90;19.10;;;;;;;0.16;86.83;97450.95;226242;1272;22619;-74
2023/11/25 19:22:25;;;;;;;29.00;18.20;;;;;;;0.14;86.84;97446.73;226165;1272;22573;-75
2023/11/25 19:27:28;;;;;;;31.70;20.80;;;;;;;0.10;87.09;97438.67;226052;1275;22585;-74
2023/11/25 19:32:30;;;;;;;34.00;19.80;;;;;;;0.05;86.91;97445.72;226138;1274;24257;-75
2023/11/25 19:37:32;;;;;;;32.80;20.50;;;;;;;0.00;86.87;97451.58;226123;1276;22567;-75
2023/11/25 19:42:35;;;;;;;27.20;17.70;;;;;;;-0.02;87.09;97465.27;226068;1275;22646;-76
2023/11/25 19:47:38;;;;;;;26.60;17.00;;;;;;;0.01;87.22;97466.86;226163;1276;22549;-75
2023/11/25 19:52:42;;;;;;;25.70;17.00;;;;;;;0.05;87.05;97466.55;226239;1272;22572;-74
2023/11/25 19:57:44;;;;;;;26.60;17.60;;;;;;;0.08;86.91;97464.85;226182;1271;22563;-75
2023/11/25 20:02:46;;;;;;;34.10;19.90;;;;;;;0.07;86.90;97461.50;226042;1253;22575;-75
2023/11/25 20:07:49;;;;;;;31.90;19.50;;;;;;;0.08;87.28;97463.80;226186;1272;22722;-75
2023/11/25 20:12:51;;;;;;;28.90;18.00;;;;;;;0.07;87.08;97468.90;226024;1276;23381;-75
2023/11/25 20:17:54;;;;;;;26.70;16.00;;;;;;;0.07;86.96;97473.11;226213;1273;24282;-76
2023/11/25 20:22:57;;;;;;;32.30;20.10;;;;;;;0.10;87.34;97484.15;226083;1275;23146;-75
2023/11/25 20:27:59;;;;;;;28.80;18.20;;;;;;;0.16;87.36;97484.39;226165;1276;22921;-74
2023/11/25 20:33:02;;;;;;;32.30;20.30;;;;;;;0.19;87.34;97479.27;226214;1274;22542;-75
2023/11/25 20:38:07;;;;;;;33.20;18.60;;;;;;;0.20;87.14;97486.79;226325;1269;22608;-74
2023/11/25 20:43:09;;;;;;;34.70;20.50;;;;;;;0.19;87.25;97487.52;226201;1273;22537;-74
2023/11/25 20:48:11;;;;;;;30.20;18.20;;;;;;;0.21;87.17;97487.23;226208;1275;22574;-75
2023/11/25 20:53:13;;;;;;;33.80;21.00;;;;;;;0.18;87.32;97489.59;226159;1274;22541;-75
2023/11/25 20:58:16;;;;;;;36.60;21.10;;;;;;;0.20;87.46;97489.02;226195;1271;22542;-75
2023/11/25 21:03:18;;;;;;;28.30;18.70;;;;;;;0.26;87.67;97482.87;226107;1275;22546;-75
2023/11/25 21:08:21;;;;;;;31.50;18.90;;;;;;;0.27;87.22;97479.17;226148;1272;22606;-75
2023/11/25 21:13:23;;;;;;;35.90;21.70;;;;;;;0.25;87.37;97477.61;226192;1276;22542;-77
2023/11/25 21:18:26;;;;;;;34.50;21.00;;;;;;;0.25;87.43;97480.85;226220;1272;22547;-75
2023/11/25 21:23:28;;;;;;;35.20;21.30;;;;;;;0.30;87.48;97479.86;226205;1272;24422;-75
2023/11/25 21:28:32;;;;;;;43.30;26.00;;;;;;;0.34;87.67;97478.57;226267;1274;22485;-73
2023/11/25 21:33:34;;;;;;;46.30;26.80;;;;;;;0.36;87.60;97476.67;226190;1276;25823;-75
2023/11/25 21:38:37;;;;;;;43.60;24.60;;;;;;;0.34;87.53;97473.54;226221;1273;22540;-75
2023/11/25 21:43:40;;;;;;;45.60;23.70;;;;;;;0.29;87.32;97480.83;226063;1276;22651;-76
2023/11/25 21:48:42;;;;;;;40.30;23.60;;;;;;;0.24;87.33;97490.02;226191;1273;22524;-74
2023/11/25 21:53:44;;;;;;;41.90;24.30;;;;;;;0.21;87.43;97497.05;226185;1276;22570;-75
2023/11/25 21:58:46;;;;;;;47.40;26.00;;;;;;;0.21;87.50;97504.16;226236;1273;22561;-74
2023/11/25 22:03:49;;;;;;;38.80;22.70;;;;;;;0.23;87.79;97503.92;226120;1275;26202;-74
2023/11/25 22:08:52;;;;;;;37.50;21.60;;;;;;;0.26;87.78;97503.67;226090;1275;22559;-75
2023/11/25 22:13:55;;;;;;;30.80;18.70;;;;;;;0.26;87.63;97503.35;226043;1276;23387;-74
2023/11/25 22:18:58;;;;;;;28.70;18.00;;;;;;;0.20;87.48;97508.70;226058;1275;22562;-73
2023/11/25 22:24:00;;;;;;;28.60;17.90;;;;;;;0.17;87.60;97511.46;226177;1275;22575;-75
2023/11/25 22:29:04;;;;;;;32.90;18.20;;;;;;;0.15;87.50;97514.26;226168;1272;23048;-75
2023/11/25 22:34:07;;;;;;;28.30;17.60;;;;;;;0.15;87.78;97513.59;226225;1272;22551;-75
2023/11/25 22:39:09;;;;;;;26.80;16.60;;;;;;;0.17;87.83;97514.06;226235;1276;22551;-74
2023/11/25 22:44:11;;;;;;;29.80;18.70;;;;;;;0.17;87.78;97512.53;226229;1272;23010;-74
2023/11/25 22:49:13;;;;;;;30.70;18.90;;;;;;;0.17;87.74;97515.43;226280;1274;23028;-75
2023/11/25 22:54:17;;;;;;;28.20;17.20;;;;;;;0.20;87.95;97518.98;226235;1275;23020;-74
2023/11/25 22:59:19;;;;;;;32.10;17.50;;;;;;;0.20;87.88;97521.39;226274;1272;22817;-74
2023/11/25 23:04:21;;;;;;;26.10;15.30;;;;;;;0.22;87.82;97518.45;226162;1275;22543;-74
2023/11/25 23:09:24;;;;;;;27.60;17.00;;;;;;;0.21;87.92;97512.30;226063;1275;24880;-75
2023/11/25 23:14:27;;;;;;;27.90;17.40;;;;;;;0.18;87.92;97513.32;226223;1272;25379;-74
2023/11/25 23:19:30;;;;;;;25.50;15.30;;;;;;;0.17;88.04;97513.70;226069;1275;22537;-74
2023/11/25 23:24:32;;;;;;;23.40;14.10;;;;;;;0.18;87.74;97514.11;226076;1275;174983;-74
2023/11/25 23:29:35;;;;;;;27.00;16.50;;;;;;;0.18;87.78;97517.44;226245;1272;25230;-75
2023/11/25 23:34:37;;;;;;;25.40;15.00;;;;;;;0.18;87.79;97518.80;226288;1272;23310;-74